createdAt,value
2023-03-29T00:01:36.190Z,101759.53
2023-03-29T00:04:06.519Z,101756.94
2023-03-29T00:06:34.039Z,101760.06
2023-03-29T00:09:01.910Z,101759.66
2023-03-29T00:11:28.889Z,101757.44
2023-03-29T00:13:55.545Z,101760.13
2023-03-29T00:16:22.831Z,101764.00
2023-03-29T00:18:49.421Z,101765.28
2023-03-29T00:21:17.290Z,101750.59
2023-03-29T00:23:43.922Z,101765.94
2023-03-29T00:26:10.856Z,101764.84
2023-03-29T00:28:37.452Z,101744.06
2023-03-29T00:31:12.243Z,101743.97
2023-03-29T00:33:39.593Z,101740.00
2023-03-29T00:36:08.873Z,101734.88
2023-03-29T00:38:35.802Z,101724.66
2023-03-29T00:41:04.251Z,101727.47
2023-03-29T00:43:31.152Z,101725.19
2023-03-29T00:45:57.813Z,101729.47
2023-03-29T00:48:30.100Z,101722.53
2023-03-29T00:51:03.108Z,101718.88
2023-03-29T00:53:35.766Z,101710.84
2023-03-29T00:56:15.982Z,101712.88
2023-03-29T00:59:08.169Z,101692.94
2023-03-29T01:01:45.500Z,101682.97
2023-03-29T01:04:25.312Z,101674.06
2023-03-29T01:07:06.610Z,101679.44
2023-03-29T01:09:37.809Z,101680.00
2023-03-29T01:12:12.238Z,101662.75
2023-03-29T01:14:49.129Z,101648.94
2023-03-29T01:17:16.218Z,101647.84
2023-03-29T01:19:47.700Z,101650.44
2023-03-29T01:22:14.797Z,101639.72
2023-03-29T01:24:52.723Z,101647.41
2023-03-29T01:27:31.782Z,101650.75
2023-03-29T01:30:07.654Z,101639.00
2023-03-29T01:33:06.347Z,101643.59
2023-03-29T01:35:51.178Z,101630.09
2023-03-29T01:38:25.887Z,101631.28
2023-03-29T01:40:52.520Z,101628.72
2023-03-29T01:43:27.812Z,101637.38
2023-03-29T01:46:14.477Z,101642.50
2023-03-29T01:48:54.829Z,101654.38
2023-03-29T01:51:26.724Z,101655.56
2023-03-29T01:54:00.762Z,101662.94
2023-03-29T01:56:29.487Z,101653.53
2023-03-29T01:59:04.136Z,101646.56
2023-03-29T02:01:38.460Z,101635.66
2023-03-29T02:04:10.558Z,101635.25
2023-03-29T02:06:37.912Z,101630.94
2023-03-29T02:09:05.054Z,101622.88
2023-03-29T02:11:32.163Z,101637.97
2023-03-29T02:13:59.058Z,101630.66
2023-03-29T02:16:25.741Z,101630.66
2023-03-29T02:18:56.317Z,101643.28
2023-03-29T02:21:58.179Z,101638.44
2023-03-29T02:24:26.330Z,101644.84
2023-03-29T02:26:52.985Z,101648.84
2023-03-29T02:29:19.610Z,101667.75
2023-03-29T02:32:00.161Z,101652.53
2023-03-29T02:34:30.339Z,101654.56
2023-03-29T02:37:06.861Z,101653.91
2023-03-29T02:39:34.812Z,101650.25
2023-03-29T02:42:03.630Z,101637.47
2023-03-29T02:44:33.380Z,101640.53
2023-03-29T02:47:17.992Z,101631.00
2023-03-29T02:49:44.739Z,101632.06
2023-03-29T02:52:18.925Z,101638.16
2023-03-29T02:54:49.007Z,101618.59
2023-03-29T02:57:15.788Z,101627.72
2023-03-29T02:59:44.653Z,101634.47
2023-03-29T03:02:12.323Z,101637.06
2023-03-29T03:04:39.188Z,101638.75
2023-03-29T03:07:05.868Z,101645.06
2023-03-29T03:09:32.545Z,101639.16
2023-03-29T03:11:59.162Z,101639.78
2023-03-29T03:14:25.714Z,101632.06
2023-03-29T03:16:52.824Z,101638.69
2023-03-29T03:19:19.942Z,101634.28
2023-03-29T03:21:47.136Z,101648.84
2023-03-29T03:24:13.776Z,101642.06
2023-03-29T03:26:40.373Z,101647.75
2023-03-29T03:29:07.012Z,101651.94
2023-03-29T03:31:33.747Z,101649.69
2023-03-29T03:34:00.387Z,101656.47
2023-03-29T03:36:29.544Z,101648.22
2023-03-29T03:38:56.026Z,101657.13
2023-03-29T03:41:22.768Z,101656.09
2023-03-29T03:43:49.680Z,101672.22
2023-03-29T03:46:17.343Z,101658.84
2023-03-29T03:48:46.004Z,101665.69
2023-03-29T03:51:13.090Z,101669.84
2023-03-29T03:53:40.046Z,101680.31
2023-03-29T03:56:09.195Z,101660.19
2023-03-29T03:58:37.251Z,101677.03
2023-03-29T04:01:05.006Z,101654.47
2023-03-29T04:03:32.440Z,101653.94
2023-03-29T04:06:02.721Z,101644.63
2023-03-29T04:08:29.316Z,101645.72
2023-03-29T04:10:58.416Z,101647.63
2023-03-29T04:13:25.822Z,101655.97
2023-03-29T04:15:58.108Z,101670.50
2023-03-29T04:18:26.309Z,101661.50
2023-03-29T04:20:53.013Z,101665.63
2023-03-29T04:23:19.582Z,101668.06
2023-03-29T04:25:46.266Z,101665.81
2023-03-29T04:28:13.525Z,101660.25
2023-03-29T04:30:40.290Z,101667.94
2023-03-29T04:33:07.071Z,101667.66
2023-03-29T04:35:33.801Z,101668.69
2023-03-29T04:38:00.507Z,101670.78
2023-03-29T04:40:27.423Z,101669.59
2023-03-29T04:42:54.453Z,101680.94
2023-03-29T04:45:21.399Z,101679.75
2023-03-29T04:47:48.281Z,101679.53
2023-03-29T04:50:15.847Z,101691.53
2023-03-29T04:52:42.616Z,101694.75
2023-03-29T04:55:09.433Z,101694.22
2023-03-29T04:57:36.138Z,101687.06
2023-03-29T05:00:13.737Z,101681.16
2023-03-29T05:02:40.656Z,101682.78
2023-03-29T05:05:07.553Z,101680.63
2023-03-29T05:07:34.115Z,101673.25
2023-03-29T05:10:00.844Z,101678.28
2023-03-29T05:12:27.475Z,101678.28
2023-03-29T05:14:54.138Z,101680.00
2023-03-29T05:17:21.831Z,101682.34
2023-03-29T05:19:48.443Z,101690.28
2023-03-29T05:22:15.283Z,101679.78
2023-03-29T05:24:42.211Z,101683.84
2023-03-29T05:27:08.870Z,101686.97
2023-03-29T05:29:35.583Z,101681.72
2023-03-29T05:32:02.399Z,101680.63
2023-03-29T05:34:29.805Z,101684.59
2023-03-29T05:36:56.928Z,101681.72
2023-03-29T05:39:24.000Z,101680.31
2023-03-29T05:41:50.806Z,101684.50
2023-03-29T05:44:17.464Z,101671.94
2023-03-29T05:46:44.117Z,101672.88
2023-03-29T05:49:10.735Z,101672.91
2023-03-29T05:51:37.286Z,101683.16
2023-03-29T05:54:04.081Z,101679.06
2023-03-29T05:56:30.694Z,101672.59
2023-03-29T05:58:57.256Z,101682.25
2023-03-29T06:01:24.659Z,101682.22
2023-03-29T06:03:52.510Z,101684.50
2023-03-29T06:06:19.366Z,101688.88
2023-03-29T06:08:46.474Z,101689.41
2023-03-29T06:11:13.867Z,101691.63
2023-03-29T06:13:42.195Z,101684.97
2023-03-29T06:16:10.718Z,101687.31
2023-03-29T06:18:40.297Z,101696.94
2023-03-29T06:21:08.037Z,101689.16
2023-03-29T06:23:36.359Z,101694.31
2023-03-29T06:26:03.998Z,101689.88
2023-03-29T06:28:30.664Z,101688.31
2023-03-29T06:31:02.724Z,101682.00
2023-03-29T06:33:30.977Z,101690.31
2023-03-29T06:35:57.869Z,101694.38
2023-03-29T06:38:26.807Z,101690.09
2023-03-29T06:41:01.078Z,101698.19
2023-03-29T06:43:27.800Z,101710.59
2023-03-29T06:45:55.053Z,101719.63
2023-03-29T06:48:21.696Z,101720.59
2023-03-29T06:50:49.162Z,101716.66
2023-03-29T06:53:16.134Z,101734.34
2023-03-29T06:55:43.005Z,101718.81
2023-03-29T06:58:09.650Z,101723.50
2023-03-29T07:00:39.195Z,101717.63
2023-03-29T07:03:08.259Z,101731.09
2023-03-29T07:05:42.039Z,101733.69
2023-03-29T07:08:08.743Z,101736.97
2023-03-29T07:10:41.302Z,101741.25
2023-03-29T07:13:11.113Z,101756.13
2023-03-29T07:15:37.800Z,101751.72
2023-03-29T07:18:05.080Z,101753.66
2023-03-29T07:20:33.774Z,101746.53
2023-03-29T07:23:00.741Z,101761.25
2023-03-29T07:25:30.024Z,101761.72
2023-03-29T07:27:56.783Z,101766.16
2023-03-29T07:30:26.518Z,101771.47
2023-03-29T07:32:54.117Z,101766.63
2023-03-29T07:35:21.166Z,101785.53
2023-03-29T07:37:47.915Z,101784.13
2023-03-29T07:40:18.719Z,101795.06
2023-03-29T07:42:56.630Z,101784.88
2023-03-29T07:45:26.508Z,101791.38
2023-03-29T07:47:58.679Z,101789.59
2023-03-29T07:50:26.745Z,101790.47
2023-03-29T07:52:53.872Z,101789.06
2023-03-29T07:55:20.777Z,101785.66
2023-03-29T07:57:49.194Z,101777.13
2023-03-29T08:00:16.855Z,101772.50
2023-03-29T08:02:49.841Z,101771.75
2023-03-29T08:05:26.116Z,101773.09
2023-03-29T08:07:56.396Z,101778.69
2023-03-29T08:10:23.449Z,101777.66
2023-03-29T08:12:50.628Z,101772.97
2023-03-29T08:15:17.306Z,101775.25
2023-03-29T08:17:44.344Z,101766.97
2023-03-29T08:20:16.398Z,101749.34
2023-03-29T08:22:43.282Z,101764.25
2023-03-29T08:25:10.360Z,101750.03
2023-03-29T08:27:37.815Z,101748.97
2023-03-29T08:30:08.158Z,101756.13
2023-03-29T08:32:35.522Z,101749.25
2023-03-29T08:35:04.401Z,101752.06
2023-03-29T08:37:32.641Z,101756.03
2023-03-29T08:39:59.366Z,101756.94
2023-03-29T08:42:52.840Z,101767.53
2023-03-29T08:45:44.370Z,101764.34
2023-03-29T08:48:22.990Z,101759.03
2023-03-29T08:50:54.308Z,101755.50
2023-03-29T08:53:29.151Z,101756.75
2023-03-29T08:55:58.915Z,101757.59
2023-03-29T08:58:29.146Z,101744.47
2023-03-29T09:00:58.422Z,101746.84
2023-03-29T09:03:30.204Z,101745.97
2023-03-29T09:06:20.830Z,101751.78
2023-03-29T09:08:50.190Z,101742.69
2023-03-29T09:11:22.540Z,101751.91
2023-03-29T09:14:04.073Z,101758.66
2023-03-29T09:16:43.819Z,101747.09
2023-03-29T09:19:34.703Z,101744.66
2023-03-29T09:22:24.472Z,101741.81
2023-03-29T09:25:50.735Z,101734.47
2023-03-29T09:28:27.140Z,101737.03
2023-03-29T09:31:06.464Z,101743.25
2023-03-29T09:33:47.639Z,101742.88
2023-03-29T09:36:23.784Z,101740.91
2023-03-29T09:38:54.579Z,101745.50
2023-03-29T09:41:41.621Z,101736.16
2023-03-29T09:44:30.800Z,101738.78
2023-03-29T09:47:28.129Z,101738.75
2023-03-29T09:49:59.251Z,101726.25
2023-03-29T09:52:26.324Z,101722.25
2023-03-29T09:54:53.281Z,101715.75
2023-03-29T09:57:20.675Z,101727.31
2023-03-29T09:59:51.415Z,101727.34
2023-03-29T10:02:21.153Z,101722.06
2023-03-29T10:04:55.484Z,101714.63
2023-03-29T10:07:22.779Z,101717.63
2023-03-29T10:09:52.612Z,101699.88
2023-03-29T10:12:20.231Z,101702.75
2023-03-29T10:14:52.231Z,101702.31
2023-03-29T10:17:25.233Z,101700.28
2023-03-29T10:19:55.930Z,101704.50
2023-03-29T10:22:25.607Z,101704.91
2023-03-29T10:24:55.447Z,101701.97
2023-03-29T10:27:29.213Z,101689.84
2023-03-29T10:29:58.739Z,101689.91
2023-03-29T10:32:33.858Z,101682.28
2023-03-29T10:35:07.375Z,101677.59
2023-03-29T10:37:34.355Z,101669.97
2023-03-29T10:40:01.541Z,101659.59
2023-03-29T10:42:28.654Z,101662.53
2023-03-29T10:45:00.036Z,101657.44
2023-03-29T10:47:34.570Z,101659.53
2023-03-29T10:50:01.898Z,101661.44
2023-03-29T10:52:29.878Z,101657.47
2023-03-29T10:54:56.957Z,101646.06
2023-03-29T10:57:34.107Z,101641.91
2023-03-29T11:00:15.519Z,101633.84
2023-03-29T11:02:50.966Z,101630.72
2023-03-29T11:05:20.329Z,101628.13
2023-03-29T11:08:04.166Z,101626.19
2023-03-29T11:10:52.935Z,101621.97
2023-03-29T11:13:38.161Z,101616.88
2023-03-29T11:16:23.326Z,101621.84
2023-03-29T11:19:03.799Z,101620.31
2023-03-29T11:21:45.809Z,101606.28
2023-03-29T11:25:02.439Z,101615.06
2023-03-29T11:27:47.508Z,101605.50
2023-03-29T11:30:25.822Z,101598.16
2023-03-29T11:33:07.821Z,101597.75
2023-03-29T11:35:56.338Z,101594.91
2023-03-29T11:38:35.124Z,101582.13
2023-03-29T11:41:02.764Z,101581.25
2023-03-29T11:43:35.481Z,101599.63
2023-03-29T11:46:29.690Z,101593.16
2023-03-29T11:49:11.230Z,101591.16
2023-03-29T11:51:59.643Z,101599.34
2023-03-29T11:54:34.838Z,101590.69
2023-03-29T11:57:10.364Z,101587.88
2023-03-29T11:59:49.815Z,101582.09
2023-03-29T12:02:46.338Z,101589.84
2023-03-29T12:05:34.882Z,101581.50
2023-03-29T12:08:09.690Z,101578.06
2023-03-29T12:10:42.019Z,101587.28
2023-03-29T12:13:14.361Z,101574.34
2023-03-29T12:15:48.472Z,101567.56
2023-03-29T12:18:40.988Z,101569.75
2023-03-29T12:21:13.333Z,101557.22
2023-03-29T12:23:43.312Z,101554.38
2023-03-29T12:26:52.626Z,101549.22
2023-03-29T12:29:28.341Z,101550.44
2023-03-29T12:32:30.274Z,101537.25
2023-03-29T12:35:15.432Z,101542.44
2023-03-29T12:37:42.428Z,101543.28
2023-03-29T12:40:16.233Z,101548.66
2023-03-29T12:42:46.999Z,101548.63
2023-03-29T12:45:20.489Z,101543.22
2023-03-29T12:47:50.991Z,101547.94
2023-03-29T12:50:37.949Z,101547.72
2023-03-29T12:53:36.519Z,101536.72
2023-03-29T12:56:03.746Z,101526.34
2023-03-29T12:58:39.591Z,101536.88
2023-03-29T13:01:08.741Z,101535.53
2023-03-29T13:03:46.542Z,101526.38
2023-03-29T13:06:13.516Z,101527.66
2023-03-29T13:08:47.971Z,101529.34
2023-03-29T13:11:32.472Z,101521.38
2023-03-29T13:14:01.807Z,101512.22
2023-03-29T13:16:35.944Z,101513.97
2023-03-29T13:19:08.463Z,101516.75
2023-03-29T13:22:06.333Z,101506.16
2023-03-29T13:24:39.701Z,101506.63
2023-03-29T13:27:25.317Z,101506.81
2023-03-29T13:30:15.478Z,101503.63
2023-03-29T13:33:13.993Z,101502.47
2023-03-29T13:36:00.119Z,101505.44
2023-03-29T13:38:31.675Z,101498.84
2023-03-29T13:41:02.399Z,101497.78
2023-03-29T13:43:41.273Z,101498.03
2023-03-29T13:46:24.967Z,101511.25
2023-03-29T13:49:06.849Z,101487.94
2023-03-29T13:51:40.221Z,101482.84
2023-03-29T13:54:15.581Z,101482.03
2023-03-29T13:56:57.058Z,101485.91
2023-03-29T13:59:49.279Z,101483.53
2023-03-29T14:02:42.577Z,101470.75
2023-03-29T14:05:13.562Z,101477.25
2023-03-29T14:07:49.270Z,101483.94
2023-03-29T14:10:21.489Z,101476.53
2023-03-29T14:12:49.389Z,101464.63
2023-03-29T14:15:42.512Z,101468.13
2023-03-29T14:18:13.843Z,101466.00
2023-03-29T14:20:46.144Z,101462.75
2023-03-29T14:23:19.611Z,101465.94
2023-03-29T14:25:46.757Z,101468.13
2023-03-29T14:28:27.878Z,101453.38
2023-03-29T14:30:56.805Z,101446.94
2023-03-29T14:33:28.661Z,101456.44
2023-03-29T14:35:57.089Z,101451.44
2023-03-29T14:38:26.239Z,101457.41
2023-03-29T14:40:54.972Z,101457.09
2023-03-29T14:43:23.997Z,101455.22
2023-03-29T14:45:50.980Z,101455.38
2023-03-29T14:48:18.162Z,101470.44
2023-03-29T14:50:46.497Z,101463.84
2023-03-29T14:53:19.876Z,101472.13
2023-03-29T14:55:51.653Z,101455.00
2023-03-29T14:58:31.862Z,101454.31
2023-03-29T15:01:07.957Z,101461.53
2023-03-29T15:03:49.176Z,101461.25
2023-03-29T15:06:18.489Z,101463.72
2023-03-29T15:08:57.920Z,101465.81
2023-03-29T15:11:30.006Z,101458.97
2023-03-29T15:14:08.867Z,101444.78
2023-03-29T15:16:43.893Z,101438.53
2023-03-29T15:19:17.297Z,101431.22
2023-03-29T15:21:45.310Z,101441.56
2023-03-29T15:24:23.029Z,101440.91
2023-03-29T15:27:17.172Z,101440.00
2023-03-29T15:29:55.980Z,101434.28
2023-03-29T15:32:24.791Z,101436.66
2023-03-29T15:35:02.859Z,101439.13
2023-03-29T15:37:29.700Z,101433.00
2023-03-29T15:39:58.030Z,101438.38
2023-03-29T15:42:24.990Z,101443.66
2023-03-29T15:44:56.230Z,101439.72
2023-03-29T15:47:22.979Z,101431.69
2023-03-29T15:49:49.611Z,101427.19
2023-03-29T15:52:16.902Z,101425.84
2023-03-29T15:54:43.782Z,101429.22
2023-03-29T15:57:15.844Z,101435.19
2023-03-29T15:59:43.635Z,101437.31
2023-03-29T16:02:23.308Z,101425.84
2023-03-29T16:04:50.660Z,101430.44
2023-03-29T16:07:18.964Z,101427.44
2023-03-29T16:09:46.196Z,101422.28
2023-03-29T16:12:13.523Z,101419.78
2023-03-29T16:14:41.885Z,101405.88
2023-03-29T16:17:09.589Z,101406.63
2023-03-29T16:19:36.255Z,101408.38
2023-03-29T16:22:07.235Z,101402.66
2023-03-29T16:24:35.031Z,101414.47
2023-03-29T16:27:02.650Z,101420.66
2023-03-29T16:29:29.768Z,101412.19
2023-03-29T16:31:56.490Z,101404.91
2023-03-29T16:34:24.217Z,101413.81
2023-03-29T16:36:50.965Z,101406.00
2023-03-29T16:39:18.298Z,101412.19
2023-03-29T16:41:48.431Z,101414.66
2023-03-29T16:44:23.226Z,101421.50
2023-03-29T16:46:51.606Z,101419.50
2023-03-29T16:49:18.294Z,101418.72
2023-03-29T16:51:48.403Z,101421.47
2023-03-29T16:54:17.174Z,101436.63
2023-03-29T16:56:43.983Z,101420.72
2023-03-29T16:59:10.855Z,101433.84
2023-03-29T17:01:38.908Z,101438.09
2023-03-29T17:04:05.614Z,101429.97
2023-03-29T17:06:32.892Z,101431.69
2023-03-29T17:09:00.644Z,101425.09
2023-03-29T17:11:28.328Z,101418.81
2023-03-29T17:13:55.147Z,101428.69
2023-03-29T17:16:21.894Z,101442.34
2023-03-29T17:18:48.535Z,101438.78
2023-03-29T17:21:15.449Z,101430.63
2023-03-29T17:23:42.119Z,101434.22
2023-03-29T17:26:08.734Z,101434.06
2023-03-29T17:28:35.877Z,101434.25
2023-03-29T17:31:08.760Z,101442.72
2023-03-29T17:33:36.335Z,101437.44
2023-03-29T17:36:04.461Z,101436.59
2023-03-29T17:38:33.936Z,101438.63
2023-03-29T17:41:01.535Z,101439.66
2023-03-29T17:43:28.495Z,101448.09
2023-03-29T17:45:55.647Z,101443.00
2023-03-29T17:48:23.659Z,101452.50
2023-03-29T17:50:50.651Z,101450.75
2023-03-29T17:53:17.205Z,101455.47
2023-03-29T17:55:43.871Z,101452.44
2023-03-29T17:58:10.432Z,101456.75
2023-03-29T18:00:37.370Z,101465.56
2023-03-29T18:03:04.192Z,101475.72
2023-03-29T18:05:30.904Z,101484.69
2023-03-29T18:07:57.520Z,101489.44
2023-03-29T18:10:24.420Z,101495.31
2023-03-29T18:12:51.740Z,101494.78
2023-03-29T18:15:18.479Z,101493.03
2023-03-29T18:17:45.072Z,101494.47
2023-03-29T18:20:12.800Z,101511.03
2023-03-29T18:22:41.420Z,101508.28
2023-03-29T18:25:09.685Z,101506.38
2023-03-29T18:27:37.985Z,101513.13
2023-03-29T18:30:06.520Z,101526.13
2023-03-29T18:32:33.382Z,101519.31
2023-03-29T18:35:02.289Z,101523.34
2023-03-29T18:37:28.749Z,101526.88
2023-03-29T18:39:57.452Z,101538.22
2023-03-29T18:42:24.113Z,101535.34
2023-03-29T18:44:51.270Z,101538.91
2023-03-29T18:47:18.364Z,101550.44
2023-03-29T18:49:45.032Z,101536.91
2023-03-29T18:52:11.720Z,101555.88
2023-03-29T18:54:38.665Z,101551.28
2023-03-29T18:57:05.230Z,101549.06
2023-03-29T18:59:31.836Z,101562.91
2023-03-29T19:01:58.613Z,101569.94
2023-03-29T19:04:27.146Z,101564.47
2023-03-29T19:06:55.617Z,101566.69
2023-03-29T19:09:22.894Z,101571.47
2023-03-29T19:11:49.506Z,101572.72
2023-03-29T19:14:17.403Z,101578.56
2023-03-29T19:16:44.132Z,101571.63
2023-03-29T19:19:10.851Z,101574.00
2023-03-29T19:21:39.063Z,101572.91
2023-03-29T19:24:07.750Z,101567.84
2023-03-29T19:26:34.370Z,101567.91
2023-03-29T19:29:01.485Z,101567.38
2023-03-29T19:31:28.401Z,101574.75
2023-03-29T19:33:55.350Z,101579.00
2023-03-29T19:36:22.292Z,101575.47
2023-03-29T19:38:51.622Z,101587.59
2023-03-29T19:41:18.178Z,101579.59
2023-03-29T19:43:44.816Z,101587.28
2023-03-29T19:46:13.391Z,101586.88
2023-03-29T19:48:40.365Z,101577.94
2023-03-29T19:51:07.979Z,101587.59
2023-03-29T19:53:38.150Z,101587.59
2023-03-29T19:56:07.601Z,101591.59
2023-03-29T19:58:34.196Z,101594.88
2023-03-29T20:01:01.147Z,101594.06
2023-03-29T20:03:28.471Z,101592.81
2023-03-29T20:05:56.570Z,101593.22
2023-03-29T20:08:24.843Z,101601.06
2023-03-29T20:11:03.549Z,101598.63
2023-03-29T20:13:38.197Z,101593.22
2023-03-29T20:16:07.737Z,101600.00
2023-03-29T20:18:34.234Z,101607.53
2023-03-29T20:21:02.133Z,101608.84
2023-03-29T20:23:28.901Z,101610.00
2023-03-29T20:25:55.486Z,101621.53
2023-03-29T20:28:23.595Z,101620.09
2023-03-29T20:30:51.478Z,101618.72
2023-03-29T20:33:19.557Z,101624.81
2023-03-29T20:35:46.953Z,101620.97
2023-03-29T20:38:14.307Z,101622.97
2023-03-29T20:40:42.305Z,101628.50
2023-03-29T20:43:13.352Z,101626.94
2023-03-29T20:45:52.125Z,101621.53
2023-03-29T20:48:23.057Z,101629.06
2023-03-29T20:50:50.727Z,101633.19
2023-03-29T20:53:18.381Z,101633.75
2023-03-29T20:55:45.160Z,101633.19
2023-03-29T20:58:13.261Z,101634.78
2023-03-29T21:00:40.431Z,101633.19
2023-03-29T21:03:08.645Z,101632.59
2023-03-29T21:05:35.708Z,101632.75
2023-03-29T21:08:04.169Z,101635.47
2023-03-29T21:10:30.925Z,101643.84
2023-03-29T21:13:00.438Z,101646.97
2023-03-29T21:15:30.541Z,101649.81
2023-03-29T21:17:57.777Z,101647.00
2023-03-29T21:20:24.664Z,101646.00
2023-03-29T21:22:51.686Z,101646.28
2023-03-29T21:25:18.721Z,101635.59
2023-03-29T21:27:45.413Z,101648.50
2023-03-29T21:30:12.253Z,101641.28
2023-03-29T21:32:39.217Z,101647.22
2023-03-29T21:35:06.446Z,101637.97
2023-03-29T21:37:33.250Z,101630.00
2023-03-29T21:39:59.930Z,101629.84
2023-03-29T21:42:26.608Z,101623.34
2023-03-29T21:44:53.204Z,101625.03
2023-03-29T21:47:19.803Z,101621.34
2023-03-29T21:49:46.430Z,101632.81
2023-03-29T21:52:13.054Z,101629.03
2023-03-29T21:54:39.642Z,101634.56
2023-03-29T21:57:06.385Z,101641.22
2023-03-29T21:59:32.997Z,101638.34
2023-03-29T22:01:59.666Z,101635.91
2023-03-29T22:04:35.965Z,101633.78
2023-03-29T22:07:04.405Z,101620.97
2023-03-29T22:09:32.857Z,101615.59
2023-03-29T22:11:59.878Z,101623.50
2023-03-29T22:14:28.587Z,101619.94
2023-03-29T22:16:55.404Z,101617.13
2023-03-29T22:19:22.175Z,101613.44
2023-03-29T22:21:48.761Z,101616.13
2023-03-29T22:24:16.484Z,101633.31
2023-03-29T22:26:44.974Z,101620.56
2023-03-29T22:29:12.227Z,101622.72
2023-03-29T22:31:39.486Z,101620.72
2023-03-29T22:34:06.751Z,101624.97
2023-03-29T22:36:33.613Z,101616.31
2023-03-29T22:39:00.532Z,101617.56
2023-03-29T22:41:28.250Z,101617.56
2023-03-29T22:43:57.353Z,101618.81
2023-03-29T22:46:24.220Z,101613.56
2023-03-29T22:48:51.442Z,101613.22
2023-03-29T22:51:18.315Z,101625.97
2023-03-29T22:53:47.042Z,101625.25
2023-03-29T22:56:15.475Z,101620.84
2023-03-29T22:58:42.577Z,101614.47
2023-03-29T23:01:09.430Z,101614.72
2023-03-29T23:03:36.765Z,101625.22
2023-03-29T23:06:03.782Z,101620.34
2023-03-29T23:08:32.807Z,101631.72
2023-03-29T23:10:59.906Z,101622.19
2023-03-29T23:13:29.053Z,101620.75
2023-03-29T23:16:01.076Z,101619.31
2023-03-29T23:18:30.283Z,101612.47
2023-03-29T23:20:58.904Z,101619.09
2023-03-29T23:23:27.648Z,101633.31
2023-03-29T23:25:55.971Z,101634.28
2023-03-29T23:28:27.605Z,101634.56
2023-03-29T23:31:03.284Z,101629.81
2023-03-29T23:33:35.328Z,101635.66
2023-03-29T23:36:04.634Z,101646.44
2023-03-29T23:38:34.111Z,101650.94
2023-03-29T23:41:03.419Z,101651.47
2023-03-29T23:43:35.435Z,101643.09
2023-03-29T23:46:07.771Z,101655.09
2023-03-29T23:48:34.564Z,101653.03
2023-03-29T23:51:02.408Z,101656.94
2023-03-29T23:53:30.392Z,101651.41
2023-03-29T23:56:02.098Z,101642.94
2023-03-29T23:58:30.557Z,101649.06
